Time;durP1;ratioP1;P1;durP2;ratioP2;P2;SDS_P1;SDS_P2;PMS_P1;PMS_P2;Temp;Humidity;BMP_temperature;BMP_pressure;BME280_temperature;BME280_humidity;BME280_pressure;Samples;Min_cycle;Max_cycle;Signal;HPM_P1;HPM_P2
2021/12/20 00:00:13;;;;;;;80.00;26.13;;;;;;;-0.61;100.00;96506.34;1021748;29;20438;-73
2021/12/20 00:00:44;;;;;;;82.74;26.42;;;;;;;-0.64;100.00;96501.53;1027542;28;20049;-73
2021/12/20 00:01:14;;;;;;;82.40;27.23;;;;;;;-0.66;100.00;96495.78;1029980;28;20532;-73
2021/12/20 00:01:45;;;;;;;78.70;26.90;;;;;;;-0.63;100.00;96508.31;1023618;28;20448;-73
2021/12/20 00:02:15;;;;;;;76.95;25.88;;;;;;;-0.61;100.00;96503.78;1018636;29;20050;-74
2021/12/20 00:02:48;;;;;;;71.70;25.33;;;;;;;-0.61;100.00;96506.34;1022200;29;20730;-73
2021/12/20 00:03:19;;;;;;;77.78;25.74;;;;;;;-0.65;100.00;96503.31;1026079;28;20381;-74
2021/12/20 00:03:49;;;;;;;72.80;24.80;;;;;;;-0.66;100.00;96501.72;1024036;28;20019;-73
2021/12/20 00:04:20;;;;;;;72.20;25.48;;;;;;;-0.82;100.00;96478.66;1030974;28;20536;-74
2021/12/20 00:04:52;;;;;;;65.32;24.40;;;;;;;-0.63;100.00;96503.16;1028423;28;20065;-73
2021/12/20 00:05:23;;;;;;;73.02;26.84;;;;;;;-0.63;100.00;96506.53;1030203;28;20022;-73
2021/12/20 00:05:53;;;;;;;62.85;24.23;;;;;;;-0.62;100.00;96507.34;1026391;28;20019;-73
2021/12/20 00:06:24;;;;;;;68.90;25.15;;;;;;;-0.61;100.00;96509.72;1029356;28;20025;-73
2021/12/20 00:06:54;;;;;;;83.03;26.67;;;;;;;-0.68;100.00;96500.28;1030540;28;20672;-73
2021/12/20 00:07:24;;;;;;;76.88;26.33;;;;;;;-0.59;100.00;96501.84;1026343;28;21147;-73
2021/12/20 00:07:55;;;;;;;62.88;24.92;;;;;;;-0.59;100.00;96497.50;1026426;28;20019;-73
2021/12/20 00:08:27;;;;;;;67.65;24.38;;;;;;;-0.63;100.00;96492.88;1022045;28;20031;-73
2021/12/20 00:08:58;;;;;;;67.76;25.50;;;;;;;-0.59;100.00;96499.25;1025031;28;20022;-72
2021/12/20 00:09:28;;;;;;;77.05;25.08;;;;;;;-0.60;100.00;96500.25;1026124;28;20026;-74
2021/12/20 00:09:59;;;;;;;83.68;27.75;;;;;;;-0.60;100.00;96495.09;1026069;28;20093;-74
2021/12/20 00:10:29;;;;;;;78.30;26.50;;;;;;;-0.59;100.00;96496.69;1026389;28;20126;-73
2021/12/20 00:11:00;;;;;;;73.70;25.95;;;;;;;-0.60;100.00;96495.09;1029393;28;20022;-73
2021/12/20 00:11:30;;;;;;;72.18;25.33;;;;;;;-0.61;100.00;96490.91;1027436;28;20026;-73
2021/12/20 00:12:01;;;;;;;83.80;27.50;;;;;;;-0.60;100.00;96489.94;1026482;28;20027;-73
2021/12/20 00:12:31;;;;;;;72.50;24.70;;;;;;;-0.61;100.00;96485.75;1026300;28;20027;-73
2021/12/20 00:13:02;;;;;;;85.10;27.02;;;;;;;-0.62;100.00;96489.31;1025817;28;20061;-72
2021/12/20 00:13:32;;;;;;;65.43;24.73;;;;;;;-0.63;100.00;96487.72;1025866;28;20042;-73
2021/12/20 00:14:03;;;;;;;78.40;26.95;;;;;;;-0.63;100.00;96485.13;1025849;28;20023;-73
2021/12/20 00:14:33;;;;;;;68.80;26.73;;;;;;;-0.60;100.00;96484.78;1026960;28;20561;-71
2021/12/20 00:15:04;;;;;;;68.40;25.35;;;;;;;-0.61;100.00;96483.16;1028202;28;20030;-73
2021/12/20 00:15:35;;;;;;;81.10;26.28;;;;;;;-0.63;100.00;96485.13;1030136;28;20033;-71
2021/12/20 00:16:05;;;;;;;73.15;25.63;;;;;;;-0.64;100.00;96484.31;1030221;28;20483;-73
2021/12/20 00:16:36;;;;;;;87.55;27.67;;;;;;;-0.69;100.00;96472.94;1030213;28;20025;-73
2021/12/20 00:17:06;;;;;;;88.63;28.48;;;;;;;-0.63;100.00;96478.19;1018192;29;20092;-73
2021/12/20 00:17:37;;;;;;;75.65;25.83;;;;;;;-0.60;100.00;96488.16;1022282;29;20031;-73
2021/12/20 00:18:07;;;;;;;91.95;29.27;;;;;;;-0.61;100.00;96486.53;1027662;28;20018;-73
2021/12/20 00:18:37;;;;;;;68.95;26.08;;;;;;;-0.59;100.00;96483.81;1030881;28;20443;-73
2021/12/20 00:19:09;;;;;;;68.18;25.70;;;;;;;-0.60;100.00;96492.53;1022196;29;20023;-73
2021/12/20 00:19:39;;;;;;;73.90;24.94;;;;;;;-0.64;100.00;96486.88;1021891;29;20283;-72
2021/12/20 00:20:10;;;;;;;68.60;25.52;;;;;;;-0.59;100.00;96494.13;1023337;28;20027;-73
2021/12/20 00:20:41;;;;;;;77.00;27.38;;;;;;;-0.58;100.00;96486.19;1026921;28;20033;-73
2021/12/20 00:21:11;;;;;;;76.97;25.02;;;;;;;-0.59;100.00;96494.13;1030318;28;20158;-73
2021/12/20 00:21:42;;;;;;;83.80;28.13;;;;;;;-0.59;100.00;96500.06;1022464;28;20026;-73
2021/12/20 00:22:12;;;;;;;72.20;26.27;;;;;;;-0.56;100.00;96499.72;1025938;28;20011;-74
2021/12/20 00:22:43;;;;;;;73.88;26.08;;;;;;;-0.54;100.00;96499.53;1025922;28;20010;-73
2021/12/20 00:23:13;;;;;;;72.85;25.08;;;;;;;-0.61;100.00;96485.75;1026344;28;20027;-73
2021/12/20 00:23:44;;;;;;;80.53;27.15;;;;;;;-0.56;100.00;96499.72;1029274;28;20023;-73
2021/12/20 00:24:14;;;;;;;70.82;25.90;;;;;;;-0.57;100.00;96490.41;1030003;28;20546;-73
2021/12/20 00:24:45;;;;;;;72.70;24.83;;;;;;;-0.58;100.00;96483.63;1034249;28;20049;-74
2021/12/20 00:25:15;;;;;;;80.22;26.38;;;;;;;-0.58;100.00;96485.41;1036132;28;20014;-73
2021/12/20 00:25:48;;;;;;;79.78;26.33;;;;;;;-0.59;100.00;96486.38;1034562;28;20391;-73
2021/12/20 00:26:18;;;;;;;80.74;26.72;;;;;;;-0.55;100.00;96477.31;1026164;28;20025;-73
2021/12/20 00:26:49;;;;;;;84.13;27.23;;;;;;;-0.61;100.00;96478.00;1028645;28;20027;-73
2021/12/20 00:27:19;;;;;;;74.20;25.85;;;;;;;-0.61;100.00;96470.28;1030196;28;20025;-73
2021/12/20 00:27:50;;;;;;;80.57;26.75;;;;;;;-0.57;100.00;96482.66;1022380;29;20031;-73
2021/12/20 00:28:20;;;;;;;73.32;25.88;;;;;;;-0.56;100.00;96479.09;1022293;28;20581;-73
2021/12/20 00:28:51;;;;;;;82.63;25.88;;;;;;;-0.57;100.00;96481.84;1025196;28;20121;-73
2021/12/20 00:29:21;;;;;;;73.05;26.10;;;;;;;-0.59;100.00;96483.81;1026381;28;20023;-73
2021/12/20 00:29:52;;;;;;;82.95;25.60;;;;;;;-0.58;100.00;96485.41;1030243;28;20014;-73
2021/12/20 00:30:22;;;;;;;67.80;24.50;;;;;;;-0.58;100.00;96481.03;1023403;28;20034;-74
2021/12/20 00:30:53;;;;;;;71.68;24.55;;;;;;;-0.59;100.00;96484.59;1028620;28;20110;-73
2021/12/20 00:31:23;;;;;;;76.25;26.98;;;;;;;-0.60;100.00;96482.22;1030302;28;20021;-73
2021/12/20 00:31:54;;;;;;;83.00;25.92;;;;;;;-0.57;100.00;96484.41;1033669;28;20332;-74
2021/12/20 00:32:24;;;;;;;98.30;28.60;;;;;;;-0.61;100.00;96480.59;1033143;28;20026;-73
2021/12/20 00:32:54;;;;;;;83.70;27.48;;;;;;;-0.61;100.00;96478.81;1029623;28;20025;-74
2021/12/20 00:33:28;;;;;;;75.20;26.48;;;;;;;-0.56;100.00;96491.19;1018138;29;20073;-71
2021/12/20 00:33:58;;;;;;;76.26;26.64;;;;;;;-0.54;100.00;96491.78;1026562;28;20038;-74
2021/12/20 00:34:29;;;;;;;74.30;26.02;;;;;;;-0.56;100.00;96489.41;1026081;28;20484;-74
2021/12/20 00:34:59;;;;;;;73.43;26.63;;;;;;;-0.58;100.00;96490.56;1031254;28;20038;-74
2021/12/20 00:35:30;;;;;;;81.10;25.88;;;;;;;-0.53;100.00;96488.28;1030069;28;20018;-73
2021/12/20 00:36:04;;;;;;;81.90;27.15;;;;;;;-0.59;100.00;96481.22;1034132;28;20391;-73
2021/12/20 00:36:34;;;;;;;78.16;26.28;;;;;;;-0.57;100.00;96479.25;1022233;29;20075;-73
2021/12/20 00:40:19;;;;;;;68.18;25.05;;;;;;;-0.57;100.00;96485.25;1026946;28;20085;-73
2021/12/20 00:40:23;;;;;;;88.92;26.44;;;;;;;-0.57;100.00;96477.50;1033946;28;20162;-74
2021/12/20 00:40:53;;;;;;;69.70;24.63;;;;;;;-0.59;100.00;96470.91;1031095;28;20333;-74
2021/12/20 00:41:24;;;;;;;82.05;26.75;;;;;;;-0.54;100.00;96481.50;1030068;28;20460;-73
2021/12/20 00:41:54;;;;;;;65.88;24.17;;;;;;;-0.49;100.00;96485.16;1026519;28;20432;-72
2021/12/20 00:42:25;;;;;;;83.47;26.77;;;;;;;-0.55;100.00;96470.38;1024333;28;20656;-72
2021/12/20 00:42:59;;;;;;;70.22;24.27;;;;;;;-0.46;100.00;96475.47;1025049;28;20022;-73
2021/12/20 00:43:29;;;;;;;67.88;25.28;;;;;;;-0.46;100.00;96483.22;1030311;28;20018;-72
2021/12/20 00:44:00;;;;;;;70.05;25.17;;;;;;;-0.47;100.00;96479.81;1030200;28;20026;-71
2021/12/20 00:44:30;;;;;;;76.82;25.58;;;;;;;-0.47;100.00;96482.38;1030257;28;20045;-72
2021/12/20 00:45:01;;;;;;;66.95;23.40;;;;;;;-0.49;100.00;96476.63;1029904;28;20023;-73
2021/12/20 00:45:35;;;;;;;66.50;23.35;;;;;;;-0.51;100.00;96476.78;1025977;28;20027;-71
2021/12/20 00:46:06;;;;;;;77.74;26.46;;;;;;;-0.47;100.00;96484.97;1026314;28;20014;-72
2021/12/20 00:46:36;;;;;;;75.97;25.35;;;;;;;-0.45;100.00;96489.97;1022971;28;20024;-73
2021/12/20 00:47:07;;;;;;;58.05;22.95;;;;;;;-0.48;100.00;96480.81;1030596;28;20018;-74
2021/12/20 00:47:37;;;;;;;74.57;24.15;;;;;;;-0.51;100.00;96471.63;1029883;28;20029;-73
2021/12/20 00:48:08;;;;;;;68.45;25.60;;;;;;;-0.44;100.00;96481.25;1026120;28;20029;-73
2021/12/20 00:48:38;;;;;;;62.80;25.52;;;;;;;-0.44;100.00;96481.25;1030340;28;20011;-74
2021/12/20 00:49:08;;;;;;;71.60;23.42;;;;;;;-0.54;100.00;96466.84;1025770;28;20098;-73
2021/12/20 00:49:39;;;;;;;77.55;25.58;;;;;;;-0.45;100.00;96484.81;1026642;28;20042;-73
2021/12/20 00:50:11;;;;;;;70.93;25.10;;;;;;;-0.57;100.00;96467.19;1029794;28;20026;-71
2021/12/20 00:50:41;;;;;;;71.20;25.10;;;;;;;-0.46;100.00;96486.59;1031395;28;20028;-73
2021/12/20 00:51:12;;;;;;;67.10;24.77;;;;;;;-0.46;100.00;96489.16;1029812;28;20704;-73
2021/12/20 00:51:42;;;;;;;76.65;25.20;;;;;;;-0.46;100.00;96488.38;1030135;28;20014;-73
2021/12/20 00:52:13;;;;;;;84.47;27.17;;;;;;;-0.47;100.00;96487.53;1030409;28;20027;-71
2021/12/20 00:52:43;;;;;;;81.45;26.25;;;;;;;-0.47;100.00;96484.97;1025663;28;20022;-73
2021/12/20 00:53:14;;;;;;;67.00;25.20;;;;;;;-0.46;100.00;96489.16;1022687;28;20150;-73
2021/12/20 00:53:44;;;;;;;62.65;24.05;;;;;;;-0.48;100.00;96478.22;1019300;29;20118;-72
2021/12/20 00:54:14;;;;;;;70.95;26.58;;;;;;;-0.45;100.00;96487.38;1033032;28;20022;-74
2021/12/20 00:54:45;;;;;;;73.32;25.27;;;;;;;-0.46;100.00;96484.00;1029415;28;20018;-73
2021/12/20 00:55:16;;;;;;;66.97;25.98;;;;;;;-0.43;100.00;96481.09;1030140;28;20014;-73
2021/12/20 00:55:47;;;;;;;67.56;25.36;;;;;;;-0.43;100.00;96485.44;1031486;28;20022;-73
2021/12/20 00:56:17;;;;;;;79.60;27.08;;;;;;;-0.45;100.00;96484.81;1025985;28;20582;-71
2021/12/20 00:56:49;;;;;;;65.32;24.85;;;;;;;-0.50;100.00;96477.63;1022343;28;20457;-71
2021/12/20 00:57:19;;;;;;;80.66;26.42;;;;;;;-0.49;100.00;96480.00;1018302;29;20640;-71
2021/12/20 00:57:50;;;;;;;94.13;27.17;;;;;;;-0.46;100.00;96483.22;1026406;28;20027;-71
2021/12/20 00:58:21;;;;;;;94.30;27.72;;;;;;;-0.51;100.00;96476.78;1030335;28;20030;-73
2021/12/20 00:58:51;;;;;;;82.70;26.90;;;;;;;-0.46;100.00;96484.00;1034129;28;20029;-74
2021/12/20 00:59:21;;;;;;;90.18;28.65;;;;;;;-0.46;100.00;96480.63;1022880;28;20252;-73
2021/12/20 00:59:52;;;;;;;64.50;25.17;;;;;;;-0.47;100.00;96477.22;1025934;28;20027;-73
2021/12/20 01:00:30;;;;;;;64.43;24.55;;;;;;;-0.46;100.00;96478.84;1021626;28;20098;-71
2021/12/20 01:01:01;;;;;;;58.82;23.18;;;;;;;-0.53;100.00;96471.03;1034610;28;20018;-72
2021/12/20 01:01:32;;;;;;;73.36;24.86;;;;;;;-0.47;100.00;96479.81;1033728;28;20080;-73
2021/12/20 01:02:02;;;;;;;82.28;26.38;;;;;;;-0.53;100.00;96475.38;1022051;29;20576;-71
2021/12/20 01:02:33;;;;;;;74.55;25.48;;;;;;;-0.51;100.00;96476.00;1018350;29;20505;-74
2021/12/20 01:03:03;;;;;;;75.05;25.65;;;;;;;-0.48;100.00;96485.94;1031763;28;20471;-73
2021/12/20 01:03:34;;;;;;;76.38;25.95;;;;;;;-0.55;100.00;96474.75;1026131;28;20478;-74
2021/12/20 01:04:04;;;;;;;76.85;25.88;;;;;;;-0.47;100.00;96487.53;1030238;28;20022;-73
2021/12/20 01:04:35;;;;;;;80.15;25.83;;;;;;;-0.47;100.00;96479.81;1027978;28;20384;-73
2021/12/20 01:05:05;;;;;;;74.28;24.67;;;;;;;-0.54;100.00;96474.59;1025896;28;20098;-73
2021/12/20 01:05:36;;;;;;;78.40;26.02;;;;;;;-0.44;100.00;96492.34;1030028;28;20010;-73
2021/12/20 01:06:06;;;;;;;78.05;25.77;;;;;;;-0.40;100.00;96487.66;1021607;29;20022;-73
2021/12/20 01:06:37;;;;;;;71.78;25.73;;;;;;;-0.44;100.00;96476.09;1025277;28;20060;-74
2021/12/20 01:07:07;;;;;;;70.00;24.92;;;;;;;-0.40;100.00;96483.31;1038299;28;20021;-71
2021/12/20 01:07:38;;;;;;;72.28;25.95;;;;;;;-0.38;100.00;96488.28;1030147;28;20503;-72
2021/12/20 01:08:09;;;;;;;91.45;28.75;;;;;;;-0.46;100.00;96473.69;1029588;28;20011;-73
2021/12/20 01:08:41;;;;;;;95.68;27.98;;;;;;;-0.42;100.00;96484.47;1022139;29;20019;-73
2021/12/20 01:09:11;;;;;;;79.34;26.34;;;;;;;-0.43;100.00;96482.88;1022684;28;20094;-73
2021/12/20 01:09:42;;;;;;;83.40;26.83;;;;;;;-0.50;100.00;96470.69;1018178;29;20071;-73
2021/12/20 01:10:12;;;;;;;81.72;26.83;;;;;;;-0.46;100.00;96475.47;1025437;28;20015;-73
2021/12/20 01:10:45;;;;;;;85.40;26.92;;;;;;;-0.52;100.00;96470.03;1027119;28;20109;-73
2021/12/20 01:11:21;;;;;;;70.66;24.40;;;;;;;-0.46;100.00;96478.84;1027161;28;20042;-72
2021/12/20 01:11:54;;;;;;;75.42;25.62;;;;;;;-0.51;100.00;96468.25;1025262;28;20022;-73
2021/12/20 01:12:28;;;;;;;70.04;23.74;;;;;;;-0.48;100.00;96476.44;1022313;29;20179;-72
2021/12/20 01:13:00;;;;;;;79.80;26.78;;;;;;;-0.52;100.00;96475.19;1026886;28;20019;-72
2021/12/20 01:13:32;;;;;;;83.96;27.58;;;;;;;-0.48;100.00;96481.59;1029939;28;20080;-71
2021/12/20 01:14:03;;;;;;;85.20;26.68;;;;;;;-0.47;100.00;96482.38;1029565;28;20027;-73
2021/12/20 01:14:36;;;;;;;78.90;26.05;;;;;;;-0.46;100.00;96478.84;1029721;28;20018;-72
2021/12/20 01:15:07;;;;;;;82.70;25.68;;;;;;;-0.52;100.00;96474.41;1019290;28;20031;-73
2021/12/20 01:15:44;;;;;;;70.80;25.88;;;;;;;-0.47;100.00;96477.22;1027795;28;20066;-72
2021/12/20 01:16:15;;;;;;;73.42;26.08;;;;;;;-0.51;100.00;96474.22;1030024;28;20416;-73
2021/12/20 01:16:46;;;;;;;84.38;26.48;;;;;;;-0.48;100.00;96480.81;1031015;28;20014;-73
2021/12/20 01:17:16;;;;;;;88.96;26.32;;;;;;;-0.48;100.00;96485.94;1034231;28;20492;-73
2021/12/20 01:17:47;;;;;;;92.25;28.48;;;;;;;-0.50;100.00;96482.75;1030082;28;20026;-72
2021/12/20 01:18:19;;;;;;;93.35;27.77;;;;;;;-0.49;100.00;96480.00;1026197;28;20476;-73
2021/12/20 01:18:49;;;;;;;75.76;25.80;;;;;;;-0.50;100.00;96487.91;1029424;28;20014;-70
2021/12/20 01:19:20;;;;;;;86.03;27.83;;;;;;;-0.52;100.00;96474.41;1033083;28;20018;-72
2021/12/20 01:19:50;;;;;;;92.47;28.05;;;;;;;-0.50;100.00;96483.56;1029919;28;20022;-72
2021/12/20 01:20:20;;;;;;;71.40;24.85;;;;;;;-0.52;100.00;96479.56;1024917;28;20015;-73
2021/12/20 01:20:51;;;;;;;82.68;26.55;;;;;;;-0.58;100.00;96465.56;1026387;28;20066;-73
2021/12/20 01:21:21;;;;;;;93.55;28.73;;;;;;;-0.47;100.00;96479.81;1030330;28;20026;-73
2021/12/20 01:21:52;;;;;;;74.40;26.40;;;;;;;-0.48;100.00;96483.38;1031966;28;20104;-72
2021/12/20 01:22:22;;;;;;;76.97;26.05;;;;;;;-0.55;100.00;96467.00;1029943;28;20018;-73
2021/12/20 01:22:55;;;;;;;83.94;28.22;;;;;;;-0.47;100.00;96472.06;1021805;28;20138;-73
2021/12/20 01:23:26;;;;;;;82.43;26.33;;;;;;;-0.48;100.00;96480.81;1021898;28;20028;-73
2021/12/20 01:23:56;;;;;;;73.82;25.67;;;;;;;-0.48;100.00;96478.22;1022280;28;20042;-73
2021/12/20 01:24:27;;;;;;;87.90;28.33;;;;;;;-0.47;100.00;96477.22;1026018;28;20029;-73
2021/12/20 01:24:57;;;;;;;91.25;27.90;;;;;;;-0.49;100.00;96474.06;1030137;28;20027;-73
2021/12/20 01:25:27;;;;;;;83.90;27.10;;;;;;;-0.52;100.00;96475.19;1030312;28;20345;-73
2021/12/20 01:25:58;;;;;;;78.88;26.67;;;;;;;-0.47;100.00;96479.81;1028250;28;20027;-73
2021/12/20 01:26:28;;;;;;;69.22;26.70;;;;;;;-0.43;100.00;96485.44;1022016;29;20023;-73
2021/12/20 01:26:59;;;;;;;91.57;27.75;;;;;;;-0.46;100.00;96481.44;1029877;28;20105;-73
2021/12/20 01:27:29;;;;;;;72.93;25.15;;;;;;;-0.45;100.00;96483.03;1030331;28;20026;-73
2021/12/20 01:28:00;;;;;;;78.40;27.05;;;;;;;-0.44;100.00;96482.03;1026146;28;20081;-73
2021/12/20 01:28:30;;;;;;;76.00;26.88;;;;;;;-0.46;100.00;96484.00;1030413;28;20030;-74
2021/12/20 01:29:01;;;;;;;79.13;25.45;;;;;;;-0.43;100.00;96483.66;1026035;28;20027;-72
2021/12/20 01:29:31;;;;;;;86.20;26.27;;;;;;;-0.41;100.00;96480.91;1025967;28;20058;-73
2021/12/20 01:30:03;;;;;;;83.15;27.70;;;;;;;-0.42;100.00;96490.41;1029337;28;20042;-73
2021/12/20 01:30:34;;;;;;;97.14;27.06;;;;;;;-0.42;100.00;96490.41;1029528;28;20046;-72
2021/12/20 01:31:04;;;;;;;81.25;26.50;;;;;;;-0.41;100.00;96489.44;1030280;28;20018;-72
2021/12/20 01:31:34;;;;;;;88.63;27.23;;;;;;;-0.49;100.00;96486.94;1030169;28;20022;-73
2021/12/20 01:32:05;;;;;;;70.20;24.80;;;;;;;-0.43;100.00;96488.81;1029705;28;20031;-73
2021/12/20 01:32:36;;;;;;;69.53;25.33;;;;;;;-0.41;100.00;96491.22;1026077;28;20026;-73
2021/12/20 01:33:08;;;;;;;78.93;25.77;;;;;;;-0.46;100.00;96481.44;1025690;28;20516;-73
2021/12/20 01:33:39;;;;;;;80.28;26.68;;;;;;;-0.42;100.00;96493.00;1022498;28;20114;-73
2021/12/20 01:34:09;;;;;;;82.40;26.55;;;;;;;-0.41;100.00;96488.63;1030982;28;20034;-73
2021/12/20 01:34:40;;;;;;;86.78;27.92;;;;;;;-0.42;100.00;96490.41;1030595;28;20098;-72
2021/12/20 01:35:11;;;;;;;98.47;29.02;;;;;;;-0.44;100.00;96484.63;1031074;28;20018;-73
2021/12/20 01:35:41;;;;;;;92.00;28.72;;;;;;;-0.42;100.00;96487.03;1042288;28;20549;-73
2021/12/20 01:36:12;;;;;;;97.35;27.98;;;;;;;-0.48;100.00;96480.81;1039248;28;20022;-74
2021/12/20 01:36:42;;;;;;;96.82;27.70;;;;;;;-0.45;100.00;96487.38;1034877;28;20045;-73
2021/12/20 01:37:15;;;;;;;101.48;30.54;;;;;;;-0.38;100.00;96480.56;1030333;28;20545;-74
2021/12/20 01:37:46;;;;;;;99.25;28.30;;;;;;;-0.48;100.00;96481.59;1035240;28;20724;-73
2021/12/20 01:38:17;;;;;;;82.88;27.10;;;;;;;-0.42;100.00;96485.25;1034611;28;20461;-73
2021/12/20 01:38:47;;;;;;;89.97;26.92;;;;;;;-0.44;100.00;96481.25;1027460;28;20015;-74
2021/12/20 01:39:18;;;;;;;94.72;28.25;;;;;;;-0.41;100.00;96491.22;1030916;28;20070;-74
2021/12/20 01:39:48;;;;;;;89.65;27.13;;;;;;;-0.40;100.00;96488.47;1024413;28;20015;-72
2021/12/20 01:40:19;;;;;;;86.68;28.40;;;;;;;-0.41;100.00;96486.84;1030365;28;20484;-74
2021/12/20 01:40:49;;;;;;;91.63;28.48;;;;;;;-0.42;100.00;96484.47;1028347;28;20097;-73
2021/12/20 01:41:20;;;;;;;81.70;27.92;;;;;;;-0.35;100.00;96487.94;1026559;28;20098;-72
2021/12/20 01:41:53;;;;;;;108.45;29.38;;;;;;;-0.38;100.00;96483.13;1026905;28;20019;-73
2021/12/20 01:42:24;;;;;;;88.08;28.12;;;;;;;-0.38;100.00;96491.66;1026431;28;20085;-73
2021/12/20 01:42:56;;;;;;;81.18;26.27;;;;;;;-0.36;100.00;96489.72;1027766;28;20023;-73
2021/12/20 01:43:26;;;;;;;80.42;26.76;;;;;;;-0.35;100.00;96488.75;1027137;28;20022;-73
2021/12/20 01:43:57;;;;;;;70.15;25.85;;;;;;;-0.38;100.00;96486.50;1027029;28;20495;-74
2021/12/20 01:44:30;;;;;;;78.53;25.77;;;;;;;-0.38;100.00;96483.94;1026557;28;20436;-73
2021/12/20 01:45:01;;;;;;;96.06;26.62;;;;;;;-0.39;100.00;96487.50;1030730;28;20393;-73
2021/12/20 01:45:32;;;;;;;79.64;26.64;;;;;;;-0.45;100.00;96479.66;1024269;28;20592;-73
2021/12/20 01:46:02;;;;;;;83.93;27.98;;;;;;;-0.40;100.00;96488.47;1030905;28;20022;-73
2021/12/20 01:46:33;;;;;;;85.68;27.83;;;;;;;-0.42;100.00;96490.41;1027022;28;20086;-73
2021/12/20 01:47:04;;;;;;;100.68;28.42;;;;;;;-0.41;100.00;96479.13;1034448;28;20502;-72
2021/12/20 01:47:37;;;;;;;103.34;29.66;;;;;;;-0.40;100.00;96488.47;1029904;28;20526;-73
2021/12/20 01:48:11;;;;;;;90.52;28.08;;;;;;;-0.38;100.00;96486.50;1031091;28;20025;-73
2021/12/20 01:48:44;;;;;;;70.26;26.26;;;;;;;-0.37;100.00;96477.00;1026681;28;20094;-71
2021/12/20 01:49:16;;;;;;;96.04;29.64;;;;;;;-0.43;100.00;96469.97;1025983;28;20113;-73
2021/12/20 01:50:41;;;;;;;80.50;26.06;;;;;;;-0.43;100.00;96472.56;1035335;28;20022;-74
2021/12/20 01:52:39;;;;;;;84.90;26.00;;;;;;;-0.38;100.00;96470.25;1024083;28;20408;-71
2021/12/20 01:53:28;;;;;;;83.56;27.72;;;;;;;-0.46;100.00;96465.97;1019014;29;20633;-71
2021/12/20 01:53:59;;;;;;;86.06;26.62;;;;;;;-0.45;100.00;96464.19;1025317;28;20496;-72
2021/12/20 01:54:30;;;;;;;83.78;27.15;;;;;;;-0.39;100.00;96468.66;1026870;28;20280;-71
2021/12/20 01:55:00;;;;;;;93.76;28.28;;;;;;;-0.41;100.00;96473.97;1029968;28;20030;-72
2021/12/20 01:55:31;;;;;;;86.40;28.20;;;;;;;-0.46;100.00;96460.81;1034448;28;20018;-72
2021/12/20 01:56:02;;;;;;;75.40;27.08;;;;;;;-0.36;100.00;96479.41;1033462;28;20026;-71
2021/12/20 01:56:36;;;;;;;91.57;27.10;;;;;;;-0.37;100.00;96482.97;1028809;28;20054;-71
2021/12/20 01:57:06;;;;;;;78.76;25.78;;;;;;;-0.42;100.00;96469.78;1031063;28;20030;-72
2021/12/20 01:57:37;;;;;;;83.30;26.58;;;;;;;-0.65;100.00;96432.94;1022715;29;20019;-72
2021/12/20 01:58:07;;;;;;;98.28;29.00;;;;;;;-0.37;100.00;96482.97;1026313;28;20015;-72
2021/12/20 01:58:38;;;;;;;85.15;27.30;;;;;;;-0.37;100.00;96477.81;1035572;28;20508;-72
2021/12/20 01:59:09;;;;;;;83.80;26.95;;;;;;;-0.37;100.00;96480.41;1035440;28;20391;-72
2021/12/20 01:59:40;;;;;;;84.56;28.30;;;;;;;-0.44;100.00;96465.78;1039670;28;20029;-71
2021/12/20 02:00:21;;;;;;;86.65;28.65;;;;;;;-0.40;100.00;96472.19;1030753;28;20500;-72
2021/12/20 02:01:17;;;;;;;82.84;28.58;;;;;;;-0.36;100.00;96479.41;1029517;28;20023;-72
2021/12/20 02:01:48;;;;;;;90.92;28.16;;;;;;;-0.42;100.00;96469.78;1023217;29;20039;-72
2021/12/20 02:02:18;;;;;;;80.10;28.77;;;;;;;-0.37;100.00;96477.81;1019484;29;20465;-72
2021/12/20 02:02:53;;;;;;;94.72;28.85;;;;;;;-0.40;100.00;96467.84;1021286;28;20024;-71
2021/12/20 02:03:24;;;;;;;93.30;28.90;;;;;;;-0.38;100.00;96468.47;1026956;28;20014;-71
2021/12/20 02:04:00;;;;;;;109.10;30.58;;;;;;;-0.39;100.00;96472.03;1028078;28;20374;-72
2021/12/20 02:04:31;;;;;;;91.18;29.84;;;;;;;-0.43;100.00;96457.88;1028499;28;20054;-73
2021/12/20 02:05:12;;;;;;;92.95;28.10;;;;;;;-0.40;100.00;96462.69;1027819;28;20015;-72
2021/12/20 02:06:22;;;;;;;79.85;29.00;;;;;;;-0.45;100.00;96449.53;1029305;28;20487;-72
2021/12/20 02:06:55;;;;;;;106.98;30.88;;;;;;;-0.41;100.00;96462.84;1019640;29;20516;-72
2021/12/20 02:07:47;;;;;;;91.50;30.18;;;;;;;-0.39;100.00;96469.44;1027302;28;20015;-72
2021/12/20 02:08:26;;;;;;;88.40;28.40;;;;;;;-0.44;100.00;96450.31;1031380;28;20019;-71
2021/12/20 02:08:57;;;;;;;97.26;29.04;;;;;;;-0.39;100.00;96464.28;1030161;28;20407;-72
2021/12/20 02:09:27;;;;;;;64.04;25.16;;;;;;;-0.36;100.00;96451.06;1031191;28;20390;-70
2021/12/20 02:09:58;;;;;;;66.68;27.27;;;;;;;-0.39;100.00;96448.03;1029232;28;20444;-71
2021/12/20 02:10:28;;;;;;;80.18;28.10;;;;;;;-0.36;100.00;96456.22;1028016;28;20563;-72
2021/12/20 02:11:00;;;;;;;102.13;31.17;;;;;;;-0.43;100.00;96439.84;1030544;28;20030;-72
2021/12/20 02:11:31;;;;;;;80.28;28.80;;;;;;;-0.36;100.00;96456.22;1030389;28;20032;-72
2021/12/20 02:12:01;;;;;;;82.40;28.27;;;;;;;-0.38;100.00;96447.84;1023694;28;20039;-71
2021/12/20 02:12:31;;;;;;;78.90;27.00;;;;;;;-0.39;100.00;96446.25;1023411;29;20583;-72
2021/12/20 02:13:02;;;;;;;95.60;30.13;;;;;;;-0.34;100.00;96445.69;1027900;28;20035;-71
2021/12/20 02:13:34;;;;;;;84.43;28.77;;;;;;;-0.34;100.00;96448.28;1035410;28;20026;-71
2021/12/20 02:14:07;;;;;;;97.44;29.86;;;;;;;-0.35;100.00;96444.91;1039587;28;20158;-71
2021/12/20 02:14:38;;;;;;;84.28;28.46;;;;;;;-0.43;100.00;96437.25;1035761;28;20531;-71
2021/12/20 02:15:08;;;;;;;72.57;26.80;;;;;;;-0.39;100.00;96443.66;1028925;28;20030;-71
2021/12/20 02:15:39;;;;;;;80.95;28.45;;;;;;;-0.42;100.00;96441.44;1027782;28;20605;-72
2021/12/20 02:16:09;;;;;;;79.80;27.65;;;;;;;-0.37;100.00;96433.16;1023540;28;20769;-71
2021/12/20 02:16:40;;;;;;;76.90;27.92;;;;;;;-0.33;100.00;96452.47;1023647;28;20058;-71
2021/12/20 02:17:11;;;;;;;102.52;30.80;;;;;;;-0.31;100.00;96448.72;1035433;28;20104;-71
2021/12/20 02:17:41;;;;;;;99.85;30.88;;;;;;;-0.42;100.00;96433.69;1028188;28;20030;-71
2021/12/20 02:18:12;;;;;;;72.72;28.27;;;;;;;-0.36;100.00;96445.91;1027247;28;20502;-71
2021/12/20 02:18:42;;;;;;;78.85;28.42;;;;;;;-0.31;100.00;96453.88;1031969;28;20109;-72
2021/12/20 02:19:15;;;;;;;105.82;31.70;;;;;;;-0.31;100.00;96451.31;1031504;28;20027;-71
2021/12/20 02:19:45;;;;;;;80.72;27.38;;;;;;;-0.32;100.00;96452.28;1031276;28;20027;-71
2021/12/20 02:20:26;;;;;;;80.90;29.38;;;;;;;-0.30;100.00;96452.13;1033171;28;20111;-71
2021/12/20 02:20:57;;;;;;;96.32;29.16;;;;;;;-0.29;100.00;96443.41;1037202;28;20038;-71
2021/12/20 02:21:27;;;;;;;89.75;28.50;;;;;;;-0.29;100.00;96451.16;1032886;28;20038;-71
2021/12/20 02:21:58;;;;;;;97.60;30.63;;;;;;;-0.32;100.00;96449.72;1029728;28;20038;-71
2021/12/20 02:22:28;;;;;;;75.05;26.58;;;;;;;-0.31;100.00;96442.78;1031484;28;20026;-72
2021/12/20 02:22:59;;;;;;;83.65;28.40;;;;;;;-0.30;100.00;96452.94;1027464;28;20031;-71
2021/12/20 02:23:29;;;;;;;79.80;28.40;;;;;;;-0.29;100.00;96449.38;1031035;28;20106;-71
2021/12/20 02:24:00;;;;;;;70.60;27.05;;;;;;;-0.52;100.00;96417.69;1023174;29;20608;-70
2021/12/20 02:24:30;;;;;;;79.47;27.70;;;;;;;-0.27;100.00;96451.75;1027458;28;20503;-73
2021/12/20 02:25:00;;;;;;;86.30;28.75;;;;;;;-0.30;100.00;96450.34;1027148;28;20027;-71
2021/12/20 02:25:31;;;;;;;80.95;29.60;;;;;;;-0.47;100.00;96425.69;1027247;28;20026;-71
2021/12/20 02:26:02;;;;;;;77.03;27.02;;;;;;;-0.35;100.00;96444.13;1029086;28;20034;-70
2021/12/20 02:26:32;;;;;;;88.45;29.30;;;;;;;-0.37;100.00;96449.47;1027478;28;20030;-71
2021/12/20 02:27:03;;;;;;;81.43;28.08;;;;;;;-0.34;100.00;96448.28;1026774;28;20495;-70
2021/12/20 02:27:33;;;;;;;82.30;29.10;;;;;;;-0.31;100.00;96456.47;1031570;28;20018;-74
2021/12/20 02:28:08;;;;;;;80.05;28.63;;;;;;;-0.32;100.00;96457.44;1031392;28;20033;-71